Terminal Aerodrome Forecast
Issued by NWS

Home | Current Version | Previous Version | Graphics & Text | Print | Product List | Glossary On
Versions: 1 2 3 4 5 6 7 8 9 10 11 12 13 14 15 16 17 18
000
FTUS43 KMPX 292000 AAA
TAFRNH
TAF AMD
KRNH 292028Z 2920/3018 28007KT P6SM OVC025
     FM292200 23006KT P6SM SCT030
     FM300000 19004KT P6SM SCT110
     FM300900 VRB03KT P6SM BKN070=

USA.gov is the U.S. government's official web portal to all federal, state and local government web resources and services.